sensor_id;sensor_type;location;lat;lon;timestamp;pressure;altitude;pressure_sealevel;temperature;humidity
77793;BME280;66983;51.438;5.438;2024-03-17T00:01:38;102211.41;;;10.81;100.00
77793;BME280;66983;51.438;5.438;2024-03-17T00:04:03;102206.94;;;10.83;100.00
77793;BME280;66983;51.438;5.438;2024-03-17T00:06:32;102203.34;;;10.84;100.00
77793;BME280;66983;51.438;5.438;2024-03-17T00:08:58;102202.47;;;10.83;100.00
77793;BME280;66983;51.438;5.438;2024-03-17T00:11:24;102205.09;;;10.86;100.00
77793;BME280;66983;51.438;5.438;2024-03-17T00:13:49;102195.25;;;10.90;100.00
77793;BME280;66983;51.438;5.438;2024-03-17T00:16:15;102192.56;;;10.90;100.00
77793;BME280;66983;51.438;5.438;2024-03-17T00:18:47;102188.19;;;10.87;100.00
77793;BME280;66983;51.438;5.438;2024-03-17T00:21:12;102189.00;;;10.91;100.00
77793;BME280;66983;51.438;5.438;2024-03-17T00:23:39;102183.66;;;10.91;100.00
77793;BME280;66983;51.438;5.438;2024-03-17T00:26:04;102187.28;;;10.87;100.00
77793;BME280;66983;51.438;5.438;2024-03-17T00:28:30;102188.19;;;10.86;100.00
77793;BME280;66983;51.438;5.438;2024-03-17T00:30:56;102186.44;;;10.85;100.00
77793;BME280;66983;51.438;5.438;2024-03-17T00:33:21;102190.84;;;10.87;100.00
77793;BME280;66983;51.438;5.438;2024-03-17T00:35:47;102186.38;;;10.88;100.00
77793;BME280;66983;51.438;5.438;2024-03-17T00:38:12;102178.50;;;10.82;100.00
77793;BME280;66983;51.438;5.438;2024-03-17T00:40:38;102182.81;;;10.89;100.00
77793;BME280;66983;51.438;5.438;2024-03-17T00:43:04;102191.69;;;10.90;100.00
77793;BME280;66983;51.438;5.438;2024-03-17T00:45:29;102193.47;;;10.91;100.00
77793;BME280;66983;51.438;5.438;2024-03-17T00:47:55;102188.06;;;10.92;100.00
77793;BME280;66983;51.438;5.438;2024-03-17T00:50:20;102189.84;;;10.92;100.00
77793;BME280;66983;51.438;5.438;2024-03-17T00:52:46;102179.13;;;10.95;100.00
77793;BME280;66983;51.438;5.438;2024-03-17T00:55:11;102175.56;;;10.96;100.00
77793;BME280;66983;51.438;5.438;2024-03-17T00:57:37;102181.75;;;10.96;100.00
77793;BME280;66983;51.438;5.438;2024-03-17T01:00:06;102171.97;;;10.97;100.00
77793;BME280;66983;51.438;5.438;2024-03-17T01:02:31;102176.41;;;10.98;100.00
77793;BME280;66983;51.438;5.438;2024-03-17T01:04:57;102175.53;;;10.97;100.00
77793;BME280;66983;51.438;5.438;2024-03-17T01:07:22;102167.56;;;10.94;100.00
77793;BME280;66983;51.438;5.438;2024-03-17T01:09:48;102174.66;;;10.95;100.00
77793;BME280;66983;51.438;5.438;2024-03-17T01:12:14;102164.94;;;10.93;100.00
77793;BME280;66983;51.438;5.438;2024-03-17T01:14:39;102161.34;;;10.94;100.00
77793;BME280;66983;51.438;5.438;2024-03-17T01:17:05;102155.22;;;10.90;100.00
77793;BME280;66983;51.438;5.438;2024-03-17T01:19:32;102156.13;;;10.89;100.00
77793;BME280;66983;51.438;5.438;2024-03-17T01:21:59;102148.19;;;10.86;100.00
77793;BME280;66983;51.438;5.438;2024-03-17T01:24:25;102146.44;;;10.85;100.00
77793;BME280;66983;51.438;5.438;2024-03-17T01:26:53;102145.56;;;10.84;100.00
77793;BME280;66983;51.438;5.438;2024-03-17T01:29:19;102135.81;;;10.82;100.00
77793;BME280;66983;51.438;5.438;2024-03-17T01:31:44;102141.16;;;10.82;100.00
77793;BME280;66983;51.438;5.438;2024-03-17T01:34:10;102139.41;;;10.81;100.00
77793;BME280;66983;51.438;5.438;2024-03-17T01:36:36;102130.66;;;10.73;100.00
77793;BME280;66983;51.438;5.438;2024-03-17T01:39:02;102140.31;;;10.80;100.00
77793;BME280;66983;51.438;5.438;2024-03-17T01:41:28;102127.94;;;10.76;100.00
77793;BME280;66983;51.438;5.438;2024-03-17T01:43:53;102119.91;;;10.77;100.00
77793;BME280;66983;51.438;5.438;2024-03-17T01:46:19;102121.72;;;10.75;100.00
77793;BME280;66983;51.438;5.438;2024-03-17T01:48:45;102122.63;;;10.74;100.00
77793;BME280;66983;51.438;5.438;2024-03-17T01:51:14;102130.63;;;10.74;100.00
77793;BME280;66983;51.438;5.438;2024-03-17T01:53:42;102131.50;;;10.75;100.00
77793;BME280;66983;51.438;5.438;2024-03-17T01:56:10;102127.03;;;10.77;100.00
77793;BME280;66983;51.438;5.438;2024-03-17T01:58:36;102120.81;;;10.76;100.00
77793;BME280;66983;51.438;5.438;2024-03-17T02:01:02;102117.25;;;10.77;100.00
77793;BME280;66983;51.438;5.438;2024-03-17T02:03:30;102119.88;;;10.79;100.00
77793;BME280;66983;51.438;5.438;2024-03-17T02:05:57;102119.88;;;10.79;100.00
77793;BME280;66983;51.438;5.438;2024-03-17T02:08:22;102119.94;;;10.76;100.00
77793;BME280;66983;51.438;5.438;2024-03-17T02:10:54;102115.38;;;10.82;100.00
77793;BME280;66983;51.438;5.438;2024-03-17T02:13:21;102105.56;;;10.83;100.00
77793;BME280;66983;51.438;5.438;2024-03-17T02:15:47;102114.44;;;10.85;100.00
77793;BME280;66983;51.438;5.438;2024-03-17T02:18:13;102116.16;;;10.87;100.00
77793;BME280;66983;51.438;5.438;2024-03-17T02:20:39;102116.13;;;10.89;100.00
77793;BME280;66983;51.438;5.438;2024-03-17T02:23:26;102115.16;;;10.92;100.00
77793;BME280;66983;51.438;5.438;2024-03-17T02:25:52;102106.25;;;10.93;100.00
77793;BME280;66983;51.438;5.438;2024-03-17T02:28:18;102108.84;;;10.96;100.00
77793;BME280;66983;51.438;5.438;2024-03-17T02:30:44;102098.16;;;10.97;100.00
77793;BME280;66983;51.438;5.438;2024-03-17T02:33:10;102099.91;;;10.98;100.00
77793;BME280;66983;51.438;5.438;2024-03-17T02:35:35;102090.06;;;11.02;100.00
77793;BME280;66983;51.438;5.438;2024-03-17T02:38:01;102085.69;;;10.99;100.00
77793;BME280;66983;51.438;5.438;2024-03-17T02:40:27;102095.31;;;11.06;100.00
77793;BME280;66983;51.438;5.438;2024-03-17T02:42:54;102084.66;;;11.06;100.00
77793;BME280;66983;51.438;5.438;2024-03-17T02:45:20;102089.06;;;11.07;100.00
77793;BME280;66983;51.438;5.438;2024-03-17T02:47:46;102084.66;;;11.06;100.00
77793;BME280;66983;51.438;5.438;2024-03-17T02:50:12;102078.41;;;11.07;100.00
77793;BME280;66983;51.438;5.438;2024-03-17T02:52:37;102076.59;;;11.08;100.00
77793;BME280;66983;51.438;5.438;2024-03-17T02:55:03;102074.81;;;11.08;100.00
77793;BME280;66983;51.438;5.438;2024-03-17T02:57:29;102091.72;;;11.09;100.00
77793;BME280;66983;51.438;5.438;2024-03-17T02:59:56;102089.03;;;11.09;100.00
77793;BME280;66983;51.438;5.438;2024-03-17T03:02:24;102093.50;;;11.08;100.00
77793;BME280;66983;51.438;5.438;2024-03-17T03:04:50;102075.72;;;11.07;100.00
77793;BME280;66983;51.438;5.438;2024-03-17T03:07:16;102086.34;;;11.10;100.00
77793;BME280;66983;51.438;5.438;2024-03-17T03:09:41;102087.19;;;11.12;100.00
77793;BME280;66983;51.438;5.438;2024-03-17T03:12:07;102075.75;;;11.06;100.00
77793;BME280;66983;51.438;5.438;2024-03-17T03:14:34;102090.72;;;11.14;100.00
77793;BME280;66983;51.438;5.438;2024-03-17T03:16:59;102081.78;;;11.15;100.00
77793;BME280;66983;51.438;5.438;2024-03-17T03:19:26;102088.00;;;11.16;100.00
77793;BME280;66983;51.438;5.438;2024-03-17T03:21:52;102087.13;;;11.15;100.00
77793;BME280;66983;51.438;5.438;2024-03-17T03:24:17;102085.28;;;11.17;100.00
77793;BME280;66983;51.438;5.438;2024-03-17T03:26:43;102080.78;;;11.19;100.00
77793;BME280;66983;51.438;5.438;2024-03-17T03:29:09;102078.13;;;11.19;100.00
77793;BME280;66983;51.438;5.438;2024-03-17T03:31:35;102070.09;;;11.21;100.00
77793;BME280;66983;51.438;5.438;2024-03-17T03:34:01;102062.03;;;11.22;100.00
77793;BME280;66983;51.438;5.438;2024-03-17T03:36:28;102066.47;;;11.23;100.00
77793;BME280;66983;51.438;5.438;2024-03-17T03:38:55;102059.38;;;11.22;100.00
77793;BME280;66983;51.438;5.438;2024-03-17T03:41:23;102054.88;;;11.25;100.00
77793;BME280;66983;51.438;5.438;2024-03-17T03:43:50;102058.47;;;11.23;100.00
77793;BME280;66983;51.438;5.438;2024-03-17T03:46:16;102068.19;;;11.26;100.00
77793;BME280;66983;51.438;5.438;2024-03-17T03:48:41;102062.84;;;11.26;100.00
77793;BME280;66983;51.438;5.438;2024-03-17T03:51:08;102053.06;;;11.27;100.00
77793;BME280;66983;51.438;5.438;2024-03-17T03:53:37;102048.59;;;11.27;100.00
77793;BME280;66983;51.438;5.438;2024-03-17T03:56:05;102042.38;;;11.27;100.00
77793;BME280;66983;51.438;5.438;2024-03-17T03:58:36;102040.59;;;11.27;100.00
77793;BME280;66983;51.438;5.438;2024-03-17T04:01:06;102039.75;;;11.25;100.00
77793;BME280;66983;51.438;5.438;2024-03-17T04:03:35;102038.88;;;11.25;100.00
77793;BME280;66983;51.438;5.438;2024-03-17T04:06:07;102029.94;;;11.26;100.00
77793;BME280;66983;51.438;5.438;2024-03-17T04:08:34;102030.84;;;11.26;100.00
77793;BME280;66983;51.438;5.438;2024-03-17T04:11:01;102027.38;;;11.21;100.00
77793;BME280;66983;51.438;5.438;2024-03-17T04:13:27;102027.31;;;11.24;100.00
77793;BME280;66983;51.438;5.438;2024-03-17T04:15:55;102021.09;;;11.23;100.00
77793;BME280;66983;51.438;5.438;2024-03-17T04:18:31;102022.94;;;11.21;100.00
77793;BME280;66983;51.438;5.438;2024-03-17T04:21:00;102013.28;;;11.16;100.00
77793;BME280;66983;51.438;5.438;2024-03-17T04:23:26;102023.91;;;11.17;100.00
77793;BME280;66983;51.438;5.438;2024-03-17T04:25:53;102014.16;;;11.16;100.00
77793;BME280;66983;51.438;5.438;2024-03-17T04:28:18;102009.84;;;11.11;100.00
77793;BME280;66983;51.438;5.438;2024-03-17T04:30:44;102011.56;;;11.13;100.00
77793;BME280;66983;51.438;5.438;2024-03-17T04:33:11;102009.84;;;11.11;100.00
77793;BME280;66983;51.438;5.438;2024-03-17T04:35:37;102008.97;;;11.10;100.00
77793;BME280;66983;51.438;5.438;2024-03-17T04:38:03;102009.94;;;11.06;100.00
77793;BME280;66983;51.438;5.438;2024-03-17T04:40:29;102006.44;;;11.04;100.00
77793;BME280;66983;51.438;5.438;2024-03-17T04:42:54;102010.91;;;11.02;100.00
77793;BME280;66983;51.438;5.438;2024-03-17T04:45:20;102013.66;;;10.99;100.00
77793;BME280;66983;51.438;5.438;2024-03-17T04:47:45;102011.00;;;10.98;100.00
77793;BME280;66983;51.438;5.438;2024-03-17T04:50:12;102006.63;;;10.95;100.00
77793;BME280;66983;51.438;5.438;2024-03-17T04:52:38;101999.53;;;10.94;100.00
77793;BME280;66983;51.438;5.438;2024-03-17T04:55:04;102004.84;;;10.94;100.00
77793;BME280;66983;51.438;5.438;2024-03-17T04:57:30;102006.66;;;10.94;100.00
77793;BME280;66983;51.438;5.438;2024-03-17T04:59:55;102001.41;;;10.91;100.00
77793;BME280;66983;51.438;5.438;2024-03-17T05:02:21;101998.78;;;10.89;100.00
77793;BME280;66983;51.438;5.438;2024-03-17T05:04:49;102011.19;;;10.90;100.00
77793;BME280;66983;51.438;5.438;2024-03-17T05:07:14;102011.19;;;10.90;100.00
77793;BME280;66983;51.438;5.438;2024-03-17T05:09:40;102010.31;;;10.90;100.00
77793;BME280;66983;51.438;5.438;2024-03-17T05:12:05;102001.47;;;10.87;100.00
77793;BME280;66983;51.438;5.438;2024-03-17T05:14:31;101998.06;;;10.79;100.00
77793;BME280;66983;51.438;5.438;2024-03-17T05:16:57;102000.72;;;10.81;100.00
77793;BME280;66983;51.438;5.438;2024-03-17T05:19:22;101999.84;;;10.80;100.00
77793;BME280;66983;51.438;5.438;2024-03-17T05:21:48;101993.63;;;10.80;100.00
77793;BME280;66983;51.438;5.438;2024-03-17T05:24:14;101995.44;;;10.78;100.00
77793;BME280;66983;51.438;5.438;2024-03-17T05:26:40;101997.25;;;10.76;100.00
77793;BME280;66983;51.438;5.438;2024-03-17T05:29:07;101991.94;;;10.76;100.00
77793;BME280;66983;51.438;5.438;2024-03-17T05:31:33;101989.31;;;10.73;100.00
77793;BME280;66983;51.438;5.438;2024-03-17T05:33:59;101990.31;;;10.67;100.00
77793;BME280;66983;51.438;5.438;2024-03-17T05:36:24;101992.09;;;10.67;100.00
77793;BME280;66983;51.438;5.438;2024-03-17T05:38:50;101993.00;;;10.67;100.00
77793;BME280;66983;51.438;5.438;2024-03-17T05:41:15;101986.78;;;10.67;100.00
77793;BME280;66983;51.438;5.438;2024-03-17T05:43:41;101962.16;;;10.56;100.00
77793;BME280;66983;51.438;5.438;2024-03-17T05:46:11;101976.22;;;10.64;100.00
77793;BME280;66983;51.438;5.438;2024-03-17T05:48:39;101979.78;;;10.63;100.00
77793;BME280;66983;51.438;5.438;2024-03-17T05:51:06;101983.34;;;10.62;100.00
77793;BME280;66983;51.438;5.438;2024-03-17T05:53:33;101975.38;;;10.60;100.00
77793;BME280;66983;51.438;5.438;2024-03-17T05:56:03;101977.16;;;10.61;100.00
77793;BME280;66983;51.438;5.438;2024-03-17T05:58:29;101990.44;;;10.63;100.00
77793;BME280;66983;51.438;5.438;2024-03-17T06:00:54;101983.41;;;10.59;100.00
77793;BME280;66983;51.438;5.438;2024-03-17T06:03:20;101987.81;;;10.61;100.00
77793;BME280;66983;51.438;5.438;2024-03-17T06:05:48;101993.13;;;10.63;100.00
77793;BME280;66983;51.438;5.438;2024-03-17T06:08:14;102000.22;;;10.62;100.00
77793;BME280;66983;51.438;5.438;2024-03-17T06:10:45;102002.97;;;10.59;100.00
77793;BME280;66983;51.438;5.438;2024-03-17T06:13:12;102010.03;;;10.62;100.00
77793;BME280;66983;51.438;5.438;2024-03-17T06:15:39;102010.94;;;10.61;100.00
77793;BME280;66983;51.438;5.438;2024-03-17T06:18:05;102005.59;;;10.61;100.00
77793;BME280;66983;51.438;5.438;2024-03-17T06:20:34;102002.97;;;10.58;100.00
77793;BME280;66983;51.438;5.438;2024-03-17T06:23:00;102003.78;;;10.63;100.00
77793;BME280;66983;51.438;5.438;2024-03-17T06:25:26;102009.97;;;10.65;100.00
77793;BME280;66983;51.438;5.438;2024-03-17T06:27:53;102009.00;;;10.66;100.00
77793;BME280;66983;51.438;5.438;2024-03-17T06:30:20;102009.88;;;10.68;100.00
77793;BME280;66983;51.438;5.438;2024-03-17T06:32:46;102007.19;;;10.68;100.00
77793;BME280;66983;51.438;5.438;2024-03-17T06:35:13;102008.94;;;10.70;100.00
77793;BME280;66983;51.438;5.438;2024-03-17T06:37:44;102008.00;;;10.73;100.00
77793;BME280;66983;51.438;5.438;2024-03-17T06:40:13;102009.75;;;10.74;100.00
77793;BME280;66983;51.438;5.438;2024-03-17T06:42:39;101999.97;;;10.74;100.00
77793;BME280;66983;51.438;5.438;2024-03-17T06:45:05;102007.81;;;10.82;100.00
77793;BME280;66983;51.438;5.438;2024-03-17T06:47:36;102015.78;;;10.83;100.00
77793;BME280;66983;51.438;5.438;2024-03-17T06:50:03;102012.09;;;10.89;100.00
77793;BME280;66983;51.438;5.438;2024-03-17T06:52:29;102006.69;;;10.92;100.00
77793;BME280;66983;51.438;5.438;2024-03-17T06:54:55;102017.28;;;10.95;100.00
77793;BME280;66983;51.438;5.438;2024-03-17T06:57:20;102020.81;;;10.97;100.00
77793;BME280;66983;51.438;5.438;2024-03-17T06:59:46;102014.56;;;10.98;100.00
77793;BME280;66983;51.438;5.438;2024-03-17T07:02:13;102014.44;;;11.04;100.00
77793;BME280;66983;51.438;5.438;2024-03-17T07:04:43;102011.72;;;11.06;100.00
77793;BME280;66983;51.438;5.438;2024-03-17T07:07:09;102006.28;;;11.10;100.00
77793;BME280;66983;51.438;5.438;2024-03-17T07:09:34;102005.31;;;11.14;100.00
77793;BME280;66983;51.438;5.438;2024-03-17T07:12:00;101998.09;;;11.18;100.00
77793;BME280;66983;51.438;5.438;2024-03-17T07:14:25;101985.56;;;11.21;100.00
77793;BME280;66983;51.438;5.438;2024-03-17T07:16:52;101981.06;;;11.23;100.00
77793;BME280;66983;51.438;5.438;2024-03-17T07:19:17;101982.75;;;11.28;100.00
77793;BME280;66983;51.438;5.438;2024-03-17T07:21:43;101978.19;;;11.33;100.00
77793;BME280;66983;51.438;5.438;2024-03-17T07:24:08;101983.47;;;11.36;100.00
77793;BME280;66983;51.438;5.438;2024-03-17T07:26:34;101989.63;;;11.39;100.00
77793;BME280;66983;51.438;5.438;2024-03-17T07:29:00;101986.81;;;11.44;100.00
77793;BME280;66983;51.438;5.438;2024-03-17T07:31:25;101985.81;;;11.48;100.00
77793;BME280;66983;51.438;5.438;2024-03-17T07:33:51;101984.88;;;11.50;100.00
77793;BME280;66983;51.438;5.438;2024-03-17T07:36:17;101982.13;;;11.53;100.00
77793;BME280;66983;51.438;5.438;2024-03-17T07:38:42;101979.38;;;11.56;100.00
77793;BME280;66983;51.438;5.438;2024-03-17T07:41:08;101989.09;;;11.61;100.00
77793;BME280;66983;51.438;5.438;2024-03-17T07:43:36;101980.97;;;11.65;100.00
77793;BME280;66983;51.438;5.438;2024-03-17T07:46:04;101977.22;;;11.71;100.00
77793;BME280;66983;51.438;5.438;2024-03-17T07:48:35;101981.66;;;11.72;100.00
77793;BME280;66983;51.438;5.438;2024-03-17T07:51:03;101987.81;;;11.75;100.00
77793;BME280;66983;51.438;5.438;2024-03-17T07:53:33;101982.47;;;11.75;100.00
77793;BME280;66983;51.438;5.438;2024-03-17T07:56:03;101983.38;;;11.74;100.00
77793;BME280;66983;51.438;5.438;2024-03-17T07:58:30;101989.59;;;11.76;100.00
77793;BME280;66983;51.438;5.438;2024-03-17T08:01:06;101979.78;;;11.77;100.00
77793;BME280;66983;51.438;5.438;2024-03-17T08:03:34;101970.81;;;11.79;100.00
77793;BME280;66983;51.438;5.438;2024-03-17T08:06:02;101964.56;;;11.80;100.00
77793;BME280;66983;51.438;5.438;2024-03-17T08:08:28;101966.31;;;11.81;100.00
77793;BME280;66983;51.438;5.438;2024-03-17T08:10:54;101965.44;;;11.81;100.00
77793;BME280;66983;51.438;5.438;2024-03-17T08:13:21;101958.19;;;11.86;100.00
77793;BME280;66983;51.438;5.438;2024-03-17T08:15:56;101965.22;;;11.90;100.00
77793;BME280;66983;51.438;5.438;2024-03-17T08:18:21;101966.06;;;11.92;100.00
77793;BME280;66983;51.438;5.438;2024-03-17T08:20:47;101968.72;;;11.92;100.00
77793;BME280;66983;51.438;5.438;2024-03-17T08:23:13;101966.81;;;11.96;100.00
77793;BME280;66983;51.438;5.438;2024-03-17T08:25:39;101976.59;;;11.97;100.00
77793;BME280;66983;51.438;5.438;2024-03-17T08:28:05;101969.44;;;11.97;100.00
77793;BME280;66983;51.438;5.438;2024-03-17T08:30:31;101976.50;;;12.00;100.00
77793;BME280;66983;51.438;5.438;2024-03-17T08:32:57;101974.69;;;12.02;100.00
77793;BME280;66983;51.438;5.438;2024-03-17T08:35:23;101971.97;;;12.03;100.00
77793;BME280;66983;51.438;5.438;2024-03-17T08:37:49;101977.22;;;12.06;100.00
77793;BME280;66983;51.438;5.438;2024-03-17T08:40:16;101975.41;;;12.08;100.00
77793;BME280;66983;51.438;5.438;2024-03-17T08:42:42;101972.69;;;12.10;100.00
77793;BME280;66983;51.438;5.438;2024-03-17T08:45:08;101972.56;;;12.14;100.00
77793;BME280;66983;51.438;5.438;2024-03-17T08:47:35;101970.78;;;12.15;100.00
77793;BME280;66983;51.438;5.438;2024-03-17T08:50:01;101973.44;;;12.15;100.00
77793;BME280;66983;51.438;5.438;2024-03-17T08:52:30;101976.00;;;12.19;100.00
77793;BME280;66983;51.438;5.438;2024-03-17T08:54:57;101974.22;;;12.20;100.00
77793;BME280;66983;51.438;5.438;2024-03-17T08:57:23;101967.00;;;12.22;100.00
77793;BME280;66983;51.438;5.438;2024-03-17T08:59:49;101974.97;;;12.23;100.00
77793;BME280;66983;51.438;5.438;2024-03-17T09:02:15;101976.72;;;12.24;100.00
77793;BME280;66983;51.438;5.438;2024-03-17T09:04:41;101975.72;;;12.29;100.00
77793;BME280;66983;51.438;5.438;2024-03-17T09:07:06;101965.91;;;12.29;100.00
77793;BME280;66983;51.438;5.438;2024-03-17T09:09:32;101962.22;;;12.33;100.00
77793;BME280;66983;51.438;5.438;2024-03-17T09:11:58;101968.38;;;12.37;100.00
77793;BME280;66983;51.438;5.438;2024-03-17T09:14:24;101966.44;;;12.42;100.00
77793;BME280;66983;51.438;5.438;2024-03-17T09:16:49;101965.53;;;12.43;100.00
77793;BME280;66983;51.438;5.438;2024-03-17T09:19:15;101971.69;;;12.46;100.00
77793;BME280;66983;51.438;5.438;2024-03-17T09:21:40;101961.78;;;12.48;100.00
77793;BME280;66983;51.438;5.438;2024-03-17T09:24:06;101959.06;;;12.50;100.00
77793;BME280;66983;51.438;5.438;2024-03-17T09:26:36;101959.81;;;12.55;100.00
77793;BME280;66983;51.438;5.438;2024-03-17T09:29:04;101958.03;;;12.55;100.00
77793;BME280;66983;51.438;5.438;2024-03-17T09:31:30;101949.91;;;12.58;100.00
77793;BME280;66983;51.438;5.438;2024-03-17T09:33:59;101966.75;;;12.62;100.00
77793;BME280;66983;51.438;5.438;2024-03-17T09:36:25;101956.00;;;12.64;100.00
77793;BME280;66983;51.438;5.438;2024-03-17T09:38:50;101954.22;;;12.64;100.00
77793;BME280;66983;51.438;5.438;2024-03-17T09:41:22;101953.19;;;12.68;100.00
77793;BME280;66983;51.438;5.438;2024-03-17T09:43:48;101956.66;;;12.72;100.00
77793;BME280;66983;51.438;5.438;2024-03-17T09:46:15;101954.78;;;12.74;100.00
77793;BME280;66983;51.438;5.438;2024-03-17T09:48:41;101953.81;;;12.76;100.00
77793;BME280;66983;51.438;5.438;2024-03-17T09:51:20;101960.84;;;12.80;100.00
77793;BME280;66983;51.438;5.438;2024-03-17T09:53:46;101958.13;;;12.82;100.00
77793;BME280;66983;51.438;5.438;2024-03-17T09:56:21;101956.19;;;12.87;100.00
77793;BME280;66983;51.438;5.438;2024-03-17T09:58:48;101951.63;;;12.90;100.00
77793;BME280;66983;51.438;5.438;2024-03-17T10:01:14;101953.34;;;12.93;100.00
77793;BME280;66983;51.438;5.438;2024-03-17T10:03:51;101947.88;;;12.96;100.00
77793;BME280;66983;51.438;5.438;2024-03-17T10:06:22;101950.47;;;12.99;100.00
77793;BME280;66983;51.438;5.438;2024-03-17T10:08:58;101937.22;;;12.95;100.00
77793;BME280;66983;51.438;5.438;2024-03-17T10:11:35;101959.47;;;12.97;100.00
77793;BME280;66983;51.438;5.438;2024-03-17T10:14:06;101945.88;;;13.03;100.00
77793;BME280;66983;51.438;5.438;2024-03-17T10:16:37;101938.00;;;12.98;100.00
77793;BME280;66983;51.438;5.438;2024-03-17T10:19:24;101949.28;;;13.08;100.00
77793;BME280;66983;51.438;5.438;2024-03-17T10:21:57;101937.66;;;13.09;100.00
77793;BME280;66983;51.438;5.438;2024-03-17T10:24:25;101934.00;;;13.11;100.00
77793;BME280;66983;51.438;5.438;2024-03-17T10:26:56;101932.22;;;13.12;100.00
77793;BME280;66983;51.438;5.438;2024-03-17T10:29:31;101927.69;;;13.14;100.00
77793;BME280;66983;51.438;5.438;2024-03-17T10:32:04;101923.31;;;13.11;100.00
77793;BME280;66983;51.438;5.438;2024-03-17T10:34:39;101929.44;;;13.15;100.00
77793;BME280;66983;51.438;5.438;2024-03-17T10:39:33;101931.13;;;13.19;100.00
77793;BME280;66983;51.438;5.438;2024-03-17T10:42:02;101924.81;;;13.21;100.00
77793;BME280;66983;51.438;5.438;2024-03-17T10:44:36;101921.19;;;13.22;100.00
77793;BME280;66983;51.438;5.438;2024-03-17T10:47:03;101922.03;;;13.24;100.00
77793;BME280;66983;51.438;5.438;2024-03-17T10:49:36;101919.22;;;13.28;100.00
77793;BME280;66983;51.438;5.438;2024-03-17T10:52:05;101922.72;;;13.30;100.00
77793;BME280;66983;51.438;5.438;2024-03-17T10:54:32;101919.03;;;13.34;100.00
77793;BME280;66983;51.438;5.438;2024-03-17T10:57:31;101926.03;;;13.38;100.00
77793;BME280;66983;51.438;5.438;2024-03-17T10:59:59;101916.19;;;13.38;100.00
77793;BME280;66983;51.438;5.438;2024-03-17T11:02:27;101916.97;;;13.42;100.00
77793;BME280;66983;51.438;5.438;2024-03-17T11:05:20;101920.28;;;13.50;100.00
77793;BME280;66983;51.438;5.438;2024-03-17T11:07:50;101911.31;;;13.51;100.00
77793;BME280;66983;51.438;5.438;2024-03-17T11:10:21;101919.22;;;13.54;100.00
77793;BME280;66983;51.438;5.438;2024-03-17T11:12:53;101910.13;;;13.59;100.00
77793;BME280;66983;51.438;5.438;2024-03-17T11:17:54;101911.75;;;13.64;100.00
77793;BME280;66983;51.438;5.438;2024-03-17T11:20:27;101908.94;;;13.68;100.00
77793;BME280;66983;51.438;5.438;2024-03-17T11:22:58;101917.84;;;13.69;100.00
77793;BME280;66983;51.438;5.438;2024-03-17T11:28:00;101910.53;;;13.74;100.00
77793;BME280;66983;51.438;5.438;2024-03-17T11:30:48;101917.59;;;13.76;100.00
77793;BME280;66983;51.438;5.438;2024-03-17T11:38:56;101907.56;;;13.81;100.00
77793;BME280;66983;51.438;5.438;2024-03-17T11:49:22;101900.06;;;13.91;100.00
77793;BME280;66983;51.438;5.438;2024-03-17T11:51:50;101895.53;;;13.93;100.00
77793;BME280;66983;51.438;5.438;2024-03-17T11:54:18;101891.88;;;13.96;100.00
77793;BME280;66983;51.438;5.438;2024-03-17T11:56:51;101894.59;;;13.94;100.00
77793;BME280;66983;51.438;5.438;2024-03-17T11:59:18;101887.34;;;13.98;100.00
77793;BME280;66983;51.438;5.438;2024-03-17T12:01:48;101890.03;;;13.98;100.00
77793;BME280;66983;51.438;5.438;2024-03-17T12:04:17;101878.38;;;13.99;100.00
77793;BME280;66983;51.438;5.438;2024-03-17T12:06:48;101879.91;;;14.04;100.00
77793;BME280;66983;51.438;5.438;2024-03-17T12:09:34;101867.41;;;14.05;100.00
77793;BME280;66983;51.438;5.438;2024-03-17T12:12:05;101857.84;;;13.98;100.00
77793;BME280;66983;51.438;5.438;2024-03-17T12:14:32;101858.38;;;14.07;100.00
77793;BME280;66983;51.438;5.438;2024-03-17T12:17:09;101861.00;;;14.09;100.00
77793;BME280;66983;51.438;5.438;2024-03-17T12:19:36;101852.03;;;14.10;100.00
77793;BME280;66983;51.438;5.438;2024-03-17T12:22:05;101853.78;;;14.11;100.00
77793;BME280;66983;51.438;5.438;2024-03-17T12:24:35;101848.41;;;14.11;100.00
77793;BME280;66983;51.438;5.438;2024-03-17T12:27:05;101848.47;;;14.09;100.00
77793;BME280;66983;51.438;5.438;2024-03-17T12:29:36;101843.88;;;14.13;100.00
77793;BME280;66983;51.438;5.438;2024-03-17T12:32:16;101848.28;;;14.14;100.00
77793;BME280;66983;51.438;5.438;2024-03-17T12:34:44;101835.72;;;14.16;100.00
77793;BME280;66983;51.438;5.438;2024-03-17T12:37:17;101835.59;;;14.19;100.00
77793;BME280;66983;51.438;5.438;2024-03-17T12:39:43;101835.47;;;14.22;100.00
77793;BME280;66983;51.438;5.438;2024-03-17T12:42:14;101826.41;;;14.26;100.00
77793;BME280;66983;51.438;5.438;2024-03-17T12:44:47;101826.28;;;14.29;100.00
77793;BME280;66983;51.438;5.438;2024-03-17T12:47:18;101823.50;;;14.31;100.00
77793;BME280;66983;51.438;5.438;2024-03-17T12:49:50;101826.03;;;14.35;100.00
77793;BME280;66983;51.438;5.438;2024-03-17T12:55:05;101824.03;;;14.40;100.00
77793;BME280;66983;51.438;5.438;2024-03-17T12:58:06;101820.41;;;14.43;100.00
77793;BME280;66983;51.438;5.438;2024-03-17T13:01:00;101816.78;;;14.44;100.00
77793;BME280;66983;51.438;5.438;2024-03-17T13:03:34;101823.72;;;14.49;100.00
77793;BME280;66983;51.438;5.438;2024-03-17T13:06:01;101808.63;;;14.47;100.00
77793;BME280;66983;51.438;5.438;2024-03-17T13:08:31;101812.88;;;14.52;100.00